This is the latest recevied weather packets stored in our database for station/object F4ETJ-1. If no packets are shown the sender has not sent any weather packets the latest 10 day(s).
| Time | Temp. | Humidity | Pressure | Rain* | Wind** | Luminosity | Snow |
|---|---|---|---|---|---|---|---|
| 1787784667 | 18.89° C | 92% | 1005.3 hPa | 0 mm | - | - | - |
| 1787784307 | 18.89° C | 92% | 1005.2 hPa | 0 mm | - | - | - |
| 1787783946 | 18.89° C | 92% | 1005.6 hPa | 0.25 mm | - | - | - |
| 1787783586 | 18.89° C | 92% | 1005.4 hPa | 1.52 mm | - | - | - |
| 1787783226 | 18.89° C | 92% | 1005.6 hPa | 6.86 mm | - | - | - |
| 1787782865 | 18.89° C | 92% | 1005.8 hPa | 7.62 mm | - | - | - |
| 1787782505 | 18.33° C | 91% | 1006.1 hPa | 7.62 mm | - | - | - |
| 1787782145 | 18.33° C | 91% | 1006.2 hPa | 7.87 mm | - | - | - |
| 1787781784 | 18.33° C | 91% | 1006.2 hPa | 7.87 mm | - | - | - |
| 1787781424 | 18.89° C | 90% | 1006.6 hPa | 7.87 mm | - | - | - |
| 1787781064 | 19.44° C | 90% | 1006.6 hPa | 7.87 mm | - | - | - |
| 1787780703 | 19.44° C | 90% | 1006 hPa | 7.87 mm | - | - | - |
| 1787780343 | 20.56° C | 89% | 1005.9 hPa | 7.62 mm | - | - | - |
| 1787779982 | 21.11° C | 85% | 1006.5 hPa | 6.35 mm | - | - | - |
| 1787779622 | 22.22° C | 82% | 1008.2 hPa | 1.02 mm | - | - | - |
| 1787779262 | 22.22° C | 82% | 1006.7 hPa | 0.25 mm | - | - | - |
| 1787778901 | 22.22° C | 82% | 1004.6 hPa | 0.25 mm | - | - | - |
| 1787778541 | 22.22° C | 80% | 1004.1 hPa | 0 mm | - | - | - |
| 1787778181 | 22.78° C | 78% | 1004.5 hPa | 0 mm | - | - | - |
| 1787777821 | 22.78° C | 76% | 1004.3 hPa | 0 mm | - | - | - |
| 1787777460 | 23.33° C | 75% | 1005.1 hPa | 0 mm | - | - | - |
| 1787777100 | 22.78° C | 75% | 1003.4 hPa | 0 mm | - | - | - |
| 1787776740 | 22.78° C | 77% | 1003.5 hPa | 0 mm | - | - | - |
| 1787776379 | 22.78° C | 78% | 1003 hPa | 0 mm | - | - | - |
| 1787776019 | 22.78° C | 78% | 1003 hPa | 0 mm | - | - | - |
* Rain latest hour (hover to see other rain measurements)
** Current wind speed in m/s (hover to see current wind gust speed)